sensor_id;sensor_type;location;lat;lon;timestamp;temperature;humidity
47521;DHT22;32291;52.010;4.446;2023-01-15T00:00:44;8.20;99.90
47521;DHT22;32291;52.010;4.446;2023-01-15T00:01:45;8.20;99.90
47521;DHT22;32291;52.010;4.446;2023-01-15T00:02:47;8.20;99.90
47521;DHT22;32291;52.010;4.446;2023-01-15T00:03:48;8.20;99.90
47521;DHT22;32291;52.010;4.446;2023-01-15T00:04:50;8.30;99.90
47521;DHT22;32291;52.010;4.446;2023-01-15T00:05:52;8.30;99.90
47521;DHT22;32291;52.010;4.446;2023-01-15T00:06:53;8.30;99.90
47521;DHT22;32291;52.010;4.446;2023-01-15T00:07:55;8.30;99.90
47521;DHT22;32291;52.010;4.446;2023-01-15T00:08:57;8.20;99.90
47521;DHT22;32291;52.010;4.446;2023-01-15T00:09:58;8.40;99.90
47521;DHT22;32291;52.010;4.446;2023-01-15T00:11:04;8.20;99.90
47521;DHT22;32291;52.010;4.446;2023-01-15T00:12:05;8.20;99.90
47521;DHT22;32291;52.010;4.446;2023-01-15T00:13:07;8.30;99.90
47521;DHT22;32291;52.010;4.446;2023-01-15T00:14:09;8.30;99.90
47521;DHT22;32291;52.010;4.446;2023-01-15T00:15:11;8.20;99.90
47521;DHT22;32291;52.010;4.446;2023-01-15T00:16:18;8.20;99.90
47521;DHT22;32291;52.010;4.446;2023-01-15T00:17:19;8.30;99.90
47521;DHT22;32291;52.010;4.446;2023-01-15T00:18:21;8.20;99.90
47521;DHT22;32291;52.010;4.446;2023-01-15T00:19:23;8.20;99.90
47521;DHT22;32291;52.010;4.446;2023-01-15T00:20:24;8.20;99.90
47521;DHT22;32291;52.010;4.446;2023-01-15T00:21:26;8.20;99.90
47521;DHT22;32291;52.010;4.446;2023-01-15T00:22:28;8.20;99.90
47521;DHT22;32291;52.010;4.446;2023-01-15T00:23:30;8.20;99.90
47521;DHT22;32291;52.010;4.446;2023-01-15T00:24:50;8.20;99.90
47521;DHT22;32291;52.010;4.446;2023-01-15T00:26:18;8.20;99.90
47521;DHT22;32291;52.010;4.446;2023-01-15T00:27:38;8.10;99.90
47521;DHT22;32291;52.010;4.446;2023-01-15T00:28:39;8.10;99.90
47521;DHT22;32291;52.010;4.446;2023-01-15T00:29:40;8.10;99.90
47521;DHT22;32291;52.010;4.446;2023-01-15T00:30:42;8.10;99.90
47521;DHT22;32291;52.010;4.446;2023-01-15T00:32:57;8.10;99.90
47521;DHT22;32291;52.010;4.446;2023-01-15T00:33:59;8.10;99.90
47521;DHT22;32291;52.010;4.446;2023-01-15T00:35:01;8.10;99.90
47521;DHT22;32291;52.010;4.446;2023-01-15T00:36:02;8.10;99.90
47521;DHT22;32291;52.010;4.446;2023-01-15T00:37:04;8.10;99.90
47521;DHT22;32291;52.010;4.446;2023-01-15T00:38:05;8.10;99.90
47521;DHT22;32291;52.010;4.446;2023-01-15T00:39:07;8.10;99.90
47521;DHT22;32291;52.010;4.446;2023-01-15T00:40:09;8.10;99.90
47521;DHT22;32291;52.010;4.446;2023-01-15T00:41:10;8.10;99.90
47521;DHT22;32291;52.010;4.446;2023-01-15T00:42:12;8.10;99.90
47521;DHT22;32291;52.010;4.446;2023-01-15T00:43:13;8.10;99.90
47521;DHT22;32291;52.010;4.446;2023-01-15T00:44:15;8.10;99.90
47521;DHT22;32291;52.010;4.446;2023-01-15T00:45:16;8.10;99.90
47521;DHT22;32291;52.010;4.446;2023-01-15T00:46:18;8.10;99.90
47521;DHT22;32291;52.010;4.446;2023-01-15T00:47:20;8.10;99.90
47521;DHT22;32291;52.010;4.446;2023-01-15T00:48:21;8.10;99.90
47521;DHT22;32291;52.010;4.446;2023-01-15T00:49:22;8.00;99.90
47521;DHT22;32291;52.010;4.446;2023-01-15T00:50:24;8.00;99.90
47521;DHT22;32291;52.010;4.446;2023-01-15T00:51:25;8.00;99.90
47521;DHT22;32291;52.010;4.446;2023-01-15T00:52:27;8.00;99.90
47521;DHT22;32291;52.010;4.446;2023-01-15T00:53:28;8.00;99.90
47521;DHT22;32291;52.010;4.446;2023-01-15T00:54:29;8.00;99.90
47521;DHT22;32291;52.010;4.446;2023-01-15T00:55:33;8.00;99.90
47521;DHT22;32291;52.010;4.446;2023-01-15T00:56:34;8.00;99.90
47521;DHT22;32291;52.010;4.446;2023-01-15T00:57:36;8.00;99.90
47521;DHT22;32291;52.010;4.446;2023-01-15T00:58:38;8.00;99.90
47521;DHT22;32291;52.010;4.446;2023-01-15T00:59:39;8.00;99.90
47521;DHT22;32291;52.010;4.446;2023-01-15T01:00:41;8.00;99.90
47521;DHT22;32291;52.010;4.446;2023-01-15T01:01:42;8.00;99.90
47521;DHT22;32291;52.010;4.446;2023-01-15T01:02:44;7.90;99.90
47521;DHT22;32291;52.010;4.446;2023-01-15T01:03:45;7.90;99.90
47521;DHT22;32291;52.010;4.446;2023-01-15T01:04:48;7.90;99.90
47521;DHT22;32291;52.010;4.446;2023-01-15T01:05:50;8.00;99.90
47521;DHT22;32291;52.010;4.446;2023-01-15T01:06:51;7.90;99.90
47521;DHT22;32291;52.010;4.446;2023-01-15T01:07:53;7.90;99.90
47521;DHT22;32291;52.010;4.446;2023-01-15T01:08:55;7.90;99.90
47521;DHT22;32291;52.010;4.446;2023-01-15T01:09:57;7.90;99.90
47521;DHT22;32291;52.010;4.446;2023-01-15T01:11:06;7.90;99.90
47521;DHT22;32291;52.010;4.446;2023-01-15T01:12:08;8.00;99.90
47521;DHT22;32291;52.010;4.446;2023-01-15T01:13:10;8.00;99.90
47521;DHT22;32291;52.010;4.446;2023-01-15T01:14:12;7.90;99.90
47521;DHT22;32291;52.010;4.446;2023-01-15T01:15:13;7.90;99.90
47521;DHT22;32291;52.010;4.446;2023-01-15T01:16:29;7.90;99.90
47521;DHT22;32291;52.010;4.446;2023-01-15T01:17:32;7.90;99.90
47521;DHT22;32291;52.010;4.446;2023-01-15T01:18:33;7.90;99.90
47521;DHT22;32291;52.010;4.446;2023-01-15T01:19:35;7.90;99.90
47521;DHT22;32291;52.010;4.446;2023-01-15T01:20:37;7.90;99.90
47521;DHT22;32291;52.010;4.446;2023-01-15T01:21:39;8.00;99.90
47521;DHT22;32291;52.010;4.446;2023-01-15T01:22:42;8.00;99.90
47521;DHT22;32291;52.010;4.446;2023-01-15T01:23:43;7.90;99.90
47521;DHT22;32291;52.010;4.446;2023-01-15T01:24:44;7.90;99.90
47521;DHT22;32291;52.010;4.446;2023-01-15T01:25:45;7.90;99.90
47521;DHT22;32291;52.010;4.446;2023-01-15T01:26:48;7.90;99.90
47521;DHT22;32291;52.010;4.446;2023-01-15T01:27:49;7.90;99.90
47521;DHT22;32291;52.010;4.446;2023-01-15T01:28:52;7.90;99.90
47521;DHT22;32291;52.010;4.446;2023-01-15T01:29:54;7.90;99.90
47521;DHT22;32291;52.010;4.446;2023-01-15T01:30:55;7.90;99.90
47521;DHT22;32291;52.010;4.446;2023-01-15T01:31:56;7.80;99.90
47521;DHT22;32291;52.010;4.446;2023-01-15T01:32:57;7.80;99.90
47521;DHT22;32291;52.010;4.446;2023-01-15T01:33:59;7.90;99.90
47521;DHT22;32291;52.010;4.446;2023-01-15T01:35:00;7.90;99.90
47521;DHT22;32291;52.010;4.446;2023-01-15T01:36:02;7.90;99.90
47521;DHT22;32291;52.010;4.446;2023-01-15T01:37:03;7.90;99.90
47521;DHT22;32291;52.010;4.446;2023-01-15T01:38:04;7.90;99.90
47521;DHT22;32291;52.010;4.446;2023-01-15T01:39:07;7.90;99.90
47521;DHT22;32291;52.010;4.446;2023-01-15T01:40:12;7.90;99.90
47521;DHT22;32291;52.010;4.446;2023-01-15T01:41:14;7.90;99.90
47521;DHT22;32291;52.010;4.446;2023-01-15T01:42:16;7.90;99.90
47521;DHT22;32291;52.010;4.446;2023-01-15T01:43:26;7.90;99.90
47521;DHT22;32291;52.010;4.446;2023-01-15T01:45:34;7.80;99.90
47521;DHT22;32291;52.010;4.446;2023-01-15T01:46:36;7.80;99.90
47521;DHT22;32291;52.010;4.446;2023-01-15T01:47:37;7.90;99.90
47521;DHT22;32291;52.010;4.446;2023-01-15T01:48:39;7.90;99.90
47521;DHT22;32291;52.010;4.446;2023-01-15T01:49:42;7.90;99.90
47521;DHT22;32291;52.010;4.446;2023-01-15T01:50:45;7.90;99.90
47521;DHT22;32291;52.010;4.446;2023-01-15T01:51:54;7.90;99.90
47521;DHT22;32291;52.010;4.446;2023-01-15T01:53:03;7.90;99.90
47521;DHT22;32291;52.010;4.446;2023-01-15T01:54:09;7.90;99.90
47521;DHT22;32291;52.010;4.446;2023-01-15T01:55:12;7.80;99.90
47521;DHT22;32291;52.010;4.446;2023-01-15T01:56:15;8.00;99.90
47521;DHT22;32291;52.010;4.446;2023-01-15T01:57:20;7.80;99.90
47521;DHT22;32291;52.010;4.446;2023-01-15T01:58:24;7.80;99.90
47521;DHT22;32291;52.010;4.446;2023-01-15T01:59:28;7.80;99.90
47521;DHT22;32291;52.010;4.446;2023-01-15T02:00:32;7.80;99.90
47521;DHT22;32291;52.010;4.446;2023-01-15T02:01:34;7.90;99.90
47521;DHT22;32291;52.010;4.446;2023-01-15T02:02:36;7.90;99.90
47521;DHT22;32291;52.010;4.446;2023-01-15T02:03:38;7.90;99.90
47521;DHT22;32291;52.010;4.446;2023-01-15T02:04:40;7.90;99.90
47521;DHT22;32291;52.010;4.446;2023-01-15T02:06:08;8.00;99.90
47521;DHT22;32291;52.010;4.446;2023-01-15T02:07:10;7.90;99.90
47521;DHT22;32291;52.010;4.446;2023-01-15T02:08:12;7.90;99.90
47521;DHT22;32291;52.010;4.446;2023-01-15T02:09:13;7.90;99.90
47521;DHT22;32291;52.010;4.446;2023-01-15T02:10:16;7.90;99.90
47521;DHT22;32291;52.010;4.446;2023-01-15T02:11:22;7.90;99.90
47521;DHT22;32291;52.010;4.446;2023-01-15T02:12:32;7.80;99.90
47521;DHT22;32291;52.010;4.446;2023-01-15T02:13:48;7.80;99.90
47521;DHT22;32291;52.010;4.446;2023-01-15T02:17:24;7.80;99.90
47521;DHT22;32291;52.010;4.446;2023-01-15T02:18:39;7.90;99.90
47521;DHT22;32291;52.010;4.446;2023-01-15T02:24:08;7.90;99.90
47521;DHT22;32291;52.010;4.446;2023-01-15T02:26:56;7.80;99.90
47521;DHT22;32291;52.010;4.446;2023-01-15T02:28:05;7.80;99.90
47521;DHT22;32291;52.010;4.446;2023-01-15T02:29:12;7.80;99.90
47521;DHT22;32291;52.010;4.446;2023-01-15T02:30:27;7.90;99.90
47521;DHT22;32291;52.010;4.446;2023-01-15T02:32:54;7.90;99.90
47521;DHT22;32291;52.010;4.446;2023-01-15T02:34:40;7.90;99.90
47521;DHT22;32291;52.010;4.446;2023-01-15T02:35:44;7.90;99.90
47521;DHT22;32291;52.010;4.446;2023-01-15T02:36:54;7.90;99.90
47521;DHT22;32291;52.010;4.446;2023-01-15T02:38:00;7.90;99.90
47521;DHT22;32291;52.010;4.446;2023-01-15T02:39:06;7.90;99.90
47521;DHT22;32291;52.010;4.446;2023-01-15T02:40:10;7.90;99.90
47521;DHT22;32291;52.010;4.446;2023-01-15T02:41:14;7.90;99.90
47521;DHT22;32291;52.010;4.446;2023-01-15T02:42:19;7.90;99.90
47521;DHT22;32291;52.010;4.446;2023-01-15T02:43:22;7.90;99.90
47521;DHT22;32291;52.010;4.446;2023-01-15T02:44:26;7.90;99.90
47521;DHT22;32291;52.010;4.446;2023-01-15T02:45:39;7.90;99.90
47521;DHT22;32291;52.010;4.446;2023-01-15T02:46:42;7.90;99.90
47521;DHT22;32291;52.010;4.446;2023-01-15T02:47:46;7.90;99.90
47521;DHT22;32291;52.010;4.446;2023-01-15T02:48:52;7.80;99.90
47521;DHT22;32291;52.010;4.446;2023-01-15T02:49:56;7.80;99.90
47521;DHT22;32291;52.010;4.446;2023-01-15T02:51:06;7.80;99.90
47521;DHT22;32291;52.010;4.446;2023-01-15T02:52:15;7.80;99.90
47521;DHT22;32291;52.010;4.446;2023-01-15T02:53:23;7.70;99.90
47521;DHT22;32291;52.010;4.446;2023-01-15T02:54:29;7.70;99.90
47521;DHT22;32291;52.010;4.446;2023-01-15T02:55:35;7.70;99.90
47521;DHT22;32291;52.010;4.446;2023-01-15T02:56:39;7.70;99.90
47521;DHT22;32291;52.010;4.446;2023-01-15T02:57:44;7.80;99.90
47521;DHT22;32291;52.010;4.446;2023-01-15T02:58:50;7.80;99.90
47521;DHT22;32291;52.010;4.446;2023-01-15T02:59:54;7.80;99.90
47521;DHT22;32291;52.010;4.446;2023-01-15T03:01:00;7.80;99.90
47521;DHT22;32291;52.010;4.446;2023-01-15T03:02:09;7.80;99.90
47521;DHT22;32291;52.010;4.446;2023-01-15T03:03:30;8.00;99.90
47521;DHT22;32291;52.010;4.446;2023-01-15T03:06:25;7.80;99.90
47521;DHT22;32291;52.010;4.446;2023-01-15T03:07:56;7.90;99.90
47521;DHT22;32291;52.010;4.446;2023-01-15T03:08:56;7.80;99.90
47521;DHT22;32291;52.010;4.446;2023-01-15T03:09:57;7.80;99.90
47521;DHT22;32291;52.010;4.446;2023-01-15T03:11:09;7.80;99.90
47521;DHT22;32291;52.010;4.446;2023-01-15T03:15:18;7.70;99.90
47521;DHT22;32291;52.010;4.446;2023-01-15T03:16:51;7.70;99.90
47521;DHT22;32291;52.010;4.446;2023-01-15T03:17:55;7.70;99.90
47521;DHT22;32291;52.010;4.446;2023-01-15T03:19:27;7.70;99.90
47521;DHT22;32291;52.010;4.446;2023-01-15T03:20:31;7.70;99.90
47521;DHT22;32291;52.010;4.446;2023-01-15T03:22:50;7.60;99.90
47521;DHT22;32291;52.010;4.446;2023-01-15T03:23:55;7.60;99.90
47521;DHT22;32291;52.010;4.446;2023-01-15T03:25:11;7.60;99.90
47521;DHT22;32291;52.010;4.446;2023-01-15T03:26:13;7.60;99.90
47521;DHT22;32291;52.010;4.446;2023-01-15T03:27:15;7.60;99.90
47521;DHT22;32291;52.010;4.446;2023-01-15T03:28:20;7.60;99.90
47521;DHT22;32291;52.010;4.446;2023-01-15T03:29:26;7.60;99.90
47521;DHT22;32291;52.010;4.446;2023-01-15T03:30:28;7.60;99.90
47521;DHT22;32291;52.010;4.446;2023-01-15T03:31:30;7.60;99.90
47521;DHT22;32291;52.010;4.446;2023-01-15T03:32:32;7.60;99.90
47521;DHT22;32291;52.010;4.446;2023-01-15T03:33:34;7.90;99.90
47521;DHT22;32291;52.010;4.446;2023-01-15T03:34:41;7.60;99.90
47521;DHT22;32291;52.010;4.446;2023-01-15T03:35:52;7.60;99.90
47521;DHT22;32291;52.010;4.446;2023-01-15T03:36:56;7.60;99.90
47521;DHT22;32291;52.010;4.446;2023-01-15T03:37:57;7.70;99.90
47521;DHT22;32291;52.010;4.446;2023-01-15T03:38:59;7.70;99.90
47521;DHT22;32291;52.010;4.446;2023-01-15T03:40:00;7.70;99.90
47521;DHT22;32291;52.010;4.446;2023-01-15T03:41:24;7.60;99.90
47521;DHT22;32291;52.010;4.446;2023-01-15T03:42:34;7.70;99.90
47521;DHT22;32291;52.010;4.446;2023-01-15T03:45:05;7.70;99.90
47521;DHT22;32291;52.010;4.446;2023-01-15T03:46:15;7.70;99.90
47521;DHT22;32291;52.010;4.446;2023-01-15T03:48:00;7.70;99.90
47521;DHT22;32291;52.010;4.446;2023-01-15T03:50:42;7.60;99.90
47521;DHT22;32291;52.010;4.446;2023-01-15T03:54:37;7.50;99.90
47521;DHT22;32291;52.010;4.446;2023-01-15T03:56:52;7.40;99.90
47521;DHT22;32291;52.010;4.446;2023-01-15T03:58:01;7.40;99.90
47521;DHT22;32291;52.010;4.446;2023-01-15T03:59:16;7.50;99.90
47521;DHT22;32291;52.010;4.446;2023-01-15T04:00:35;7.60;99.90
47521;DHT22;32291;52.010;4.446;2023-01-15T04:01:40;7.70;99.90
47521;DHT22;32291;52.010;4.446;2023-01-15T04:02:44;7.60;99.90
47521;DHT22;32291;52.010;4.446;2023-01-15T04:03:48;7.60;99.90
47521;DHT22;32291;52.010;4.446;2023-01-15T04:04:51;7.60;99.90
47521;DHT22;32291;52.010;4.446;2023-01-15T04:05:55;7.70;99.90
47521;DHT22;32291;52.010;4.446;2023-01-15T04:06:57;7.60;99.90
47521;DHT22;32291;52.010;4.446;2023-01-15T04:08:00;7.60;99.90
47521;DHT22;32291;52.010;4.446;2023-01-15T04:09:06;7.60;99.90
47521;DHT22;32291;52.010;4.446;2023-01-15T04:10:09;7.90;99.90
47521;DHT22;32291;52.010;4.446;2023-01-15T04:11:10;7.70;99.90
47521;DHT22;32291;52.010;4.446;2023-01-15T04:12:12;7.60;99.90
47521;DHT22;32291;52.010;4.446;2023-01-15T04:13:13;7.60;99.90
47521;DHT22;32291;52.010;4.446;2023-01-15T04:14:14;7.60;99.90
47521;DHT22;32291;52.010;4.446;2023-01-15T04:15:16;7.90;99.90
47521;DHT22;32291;52.010;4.446;2023-01-15T04:16:26;7.60;99.90
47521;DHT22;32291;52.010;4.446;2023-01-15T04:17:28;7.70;99.90
47521;DHT22;32291;52.010;4.446;2023-01-15T04:18:29;7.70;99.90
47521;DHT22;32291;52.010;4.446;2023-01-15T04:19:31;7.70;99.90
47521;DHT22;32291;52.010;4.446;2023-01-15T04:20:33;8.00;99.90
47521;DHT22;32291;52.010;4.446;2023-01-15T04:21:34;7.70;99.90
47521;DHT22;32291;52.010;4.446;2023-01-15T04:22:36;7.70;99.90
47521;DHT22;32291;52.010;4.446;2023-01-15T04:23:37;7.70;99.90
47521;DHT22;32291;52.010;4.446;2023-01-15T04:24:39;7.70;99.90
47521;DHT22;32291;52.010;4.446;2023-01-15T04:25:41;7.70;99.90
47521;DHT22;32291;52.010;4.446;2023-01-15T04:26:42;7.70;99.90
47521;DHT22;32291;52.010;4.446;2023-01-15T04:27:44;7.70;99.90
47521;DHT22;32291;52.010;4.446;2023-01-15T04:28:45;7.70;99.90
47521;DHT22;32291;52.010;4.446;2023-01-15T04:29:47;7.70;99.90
47521;DHT22;32291;52.010;4.446;2023-01-15T04:30:48;7.70;99.90
47521;DHT22;32291;52.010;4.446;2023-01-15T04:31:49;7.60;99.90
47521;DHT22;32291;52.010;4.446;2023-01-15T04:32:53;7.60;99.90
47521;DHT22;32291;52.010;4.446;2023-01-15T04:33:55;7.70;99.90
47521;DHT22;32291;52.010;4.446;2023-01-15T04:34:57;7.60;99.90
47521;DHT22;32291;52.010;4.446;2023-01-15T04:36:00;7.60;99.90
47521;DHT22;32291;52.010;4.446;2023-01-15T04:37:02;7.60;99.90
47521;DHT22;32291;52.010;4.446;2023-01-15T04:38:03;7.60;99.90
47521;DHT22;32291;52.010;4.446;2023-01-15T04:39:05;7.70;99.90
47521;DHT22;32291;52.010;4.446;2023-01-15T04:40:07;7.70;99.90
47521;DHT22;32291;52.010;4.446;2023-01-15T04:41:09;7.60;99.90
47521;DHT22;32291;52.010;4.446;2023-01-15T04:42:29;7.60;99.90
47521;DHT22;32291;52.010;4.446;2023-01-15T04:43:49;7.60;99.90
47521;DHT22;32291;52.010;4.446;2023-01-15T04:45:09;7.60;99.90
47521;DHT22;32291;52.010;4.446;2023-01-15T04:46:11;7.60;99.90
47521;DHT22;32291;52.010;4.446;2023-01-15T04:47:12;7.60;99.90
47521;DHT22;32291;52.010;4.446;2023-01-15T04:48:14;7.60;99.90
47521;DHT22;32291;52.010;4.446;2023-01-15T04:49:16;7.70;99.90
47521;DHT22;32291;52.010;4.446;2023-01-15T04:50:19;7.60;99.90
47521;DHT22;32291;52.010;4.446;2023-01-15T04:51:20;7.60;99.90
47521;DHT22;32291;52.010;4.446;2023-01-15T04:52:21;7.70;99.90
47521;DHT22;32291;52.010;4.446;2023-01-15T04:53:24;7.60;99.90
47521;DHT22;32291;52.010;4.446;2023-01-15T04:54:26;7.70;99.90
47521;DHT22;32291;52.010;4.446;2023-01-15T04:55:29;7.70;99.90
47521;DHT22;32291;52.010;4.446;2023-01-15T04:56:31;7.70;99.90
47521;DHT22;32291;52.010;4.446;2023-01-15T04:57:35;7.70;99.90
47521;DHT22;32291;52.010;4.446;2023-01-15T04:58:38;7.60;99.90
47521;DHT22;32291;52.010;4.446;2023-01-15T04:59:40;7.60;99.90
47521;DHT22;32291;52.010;4.446;2023-01-15T05:00:42;7.60;99.90
47521;DHT22;32291;52.010;4.446;2023-01-15T05:01:44;7.60;99.90
47521;DHT22;32291;52.010;4.446;2023-01-15T05:02:45;7.60;99.90
47521;DHT22;32291;52.010;4.446;2023-01-15T05:03:47;7.60;99.90
47521;DHT22;32291;52.010;4.446;2023-01-15T05:04:48;7.60;99.90
47521;DHT22;32291;52.010;4.446;2023-01-15T05:05:50;7.60;99.90
47521;DHT22;32291;52.010;4.446;2023-01-15T05:06:51;7.70;99.90
47521;DHT22;32291;52.010;4.446;2023-01-15T05:07:53;7.70;99.90
47521;DHT22;32291;52.010;4.446;2023-01-15T05:08:54;7.60;99.90
47521;DHT22;32291;52.010;4.446;2023-01-15T05:09:56;7.50;99.90
47521;DHT22;32291;52.010;4.446;2023-01-15T05:11:05;7.50;99.90
47521;DHT22;32291;52.010;4.446;2023-01-15T05:12:07;7.50;99.90
47521;DHT22;32291;52.010;4.446;2023-01-15T05:13:09;7.50;99.90
47521;DHT22;32291;52.010;4.446;2023-01-15T05:14:10;7.50;99.90
47521;DHT22;32291;52.010;4.446;2023-01-15T05:15:11;7.60;99.90
47521;DHT22;32291;52.010;4.446;2023-01-15T05:16:31;7.50;99.90
47521;DHT22;32291;52.010;4.446;2023-01-15T05:17:35;7.50;99.90
47521;DHT22;32291;52.010;4.446;2023-01-15T05:18:37;7.50;99.90
47521;DHT22;32291;52.010;4.446;2023-01-15T05:19:39;7.50;99.90
47521;DHT22;32291;52.010;4.446;2023-01-15T05:20:41;7.50;99.90
47521;DHT22;32291;52.010;4.446;2023-01-15T05:21:43;7.40;99.90
47521;DHT22;32291;52.010;4.446;2023-01-15T05:22:45;7.40;99.90
47521;DHT22;32291;52.010;4.446;2023-01-15T05:23:47;7.30;99.90
47521;DHT22;32291;52.010;4.446;2023-01-15T05:24:49;7.30;99.90
47521;DHT22;32291;52.010;4.446;2023-01-15T05:25:51;7.40;99.90
47521;DHT22;32291;52.010;4.446;2023-01-15T05:26:52;7.40;99.90
47521;DHT22;32291;52.010;4.446;2023-01-15T05:27:55;7.40;99.90
47521;DHT22;32291;52.010;4.446;2023-01-15T05:28:57;7.40;99.90
47521;DHT22;32291;52.010;4.446;2023-01-15T05:29:59;7.40;99.90
47521;DHT22;32291;52.010;4.446;2023-01-15T05:31:11;7.50;99.90
47521;DHT22;32291;52.010;4.446;2023-01-15T05:32:13;7.50;99.90
47521;DHT22;32291;52.010;4.446;2023-01-15T05:33:14;7.50;99.90
47521;DHT22;32291;52.010;4.446;2023-01-15T05:34:15;7.50;99.90
47521;DHT22;32291;52.010;4.446;2023-01-15T05:35:17;7.40;99.90
47521;DHT22;32291;52.010;4.446;2023-01-15T05:36:23;7.50;99.90
47521;DHT22;32291;52.010;4.446;2023-01-15T05:37:25;7.50;99.90
47521;DHT22;32291;52.010;4.446;2023-01-15T05:38:26;7.50;99.90
47521;DHT22;32291;52.010;4.446;2023-01-15T05:39:28;7.40;99.90
47521;DHT22;32291;52.010;4.446;2023-01-15T05:40:29;7.30;99.90
47521;DHT22;32291;52.010;4.446;2023-01-15T05:41:30;7.30;99.90
47521;DHT22;32291;52.010;4.446;2023-01-15T05:42:50;7.30;99.90
47521;DHT22;32291;52.010;4.446;2023-01-15T05:43:52;7.30;99.90
47521;DHT22;32291;52.010;4.446;2023-01-15T05:44:53;7.20;99.90
47521;DHT22;32291;52.010;4.446;2023-01-15T05:45:55;7.20;99.90
47521;DHT22;32291;52.010;4.446;2023-01-15T05:47:01;7.20;99.90
47521;DHT22;32291;52.010;4.446;2023-01-15T05:48:05;7.20;99.90
47521;DHT22;32291;52.010;4.446;2023-01-15T05:49:12;7.30;99.90
47521;DHT22;32291;52.010;4.446;2023-01-15T05:50:13;7.30;99.90
47521;DHT22;32291;52.010;4.446;2023-01-15T05:51:15;7.30;99.90
47521;DHT22;32291;52.010;4.446;2023-01-15T05:52:17;7.40;99.90
47521;DHT22;32291;52.010;4.446;2023-01-15T05:53:18;7.20;99.90
47521;DHT22;32291;52.010;4.446;2023-01-15T05:54:25;7.20;99.90
47521;DHT22;32291;52.010;4.446;2023-01-15T05:55:26;7.20;99.90
47521;DHT22;32291;52.010;4.446;2023-01-15T05:56:27;7.20;99.90
47521;DHT22;32291;52.010;4.446;2023-01-15T05:57:29;7.20;99.90
47521;DHT22;32291;52.010;4.446;2023-01-15T05:58:33;7.20;99.90
47521;DHT22;32291;52.010;4.446;2023-01-15T05:59:34;7.10;99.90
47521;DHT22;32291;52.010;4.446;2023-01-15T06:00:35;7.10;99.90
47521;DHT22;32291;52.010;4.446;2023-01-15T06:01:37;7.00;99.90
47521;DHT22;32291;52.010;4.446;2023-01-15T06:02:39;7.10;99.90
47521;DHT22;32291;52.010;4.446;2023-01-15T06:03:40;7.00;99.90
47521;DHT22;32291;52.010;4.446;2023-01-15T06:04:44;7.10;99.90
47521;DHT22;32291;52.010;4.446;2023-01-15T06:05:52;7.00;99.90
47521;DHT22;32291;52.010;4.446;2023-01-15T06:06:54;7.00;99.90
47521;DHT22;32291;52.010;4.446;2023-01-15T06:07:56;7.00;99.90
47521;DHT22;32291;52.010;4.446;2023-01-15T06:08:57;7.00;99.90
47521;DHT22;32291;52.010;4.446;2023-01-15T06:09:59;7.00;99.90
47521;DHT22;32291;52.010;4.446;2023-01-15T06:11:00;7.10;99.90
47521;DHT22;32291;52.010;4.446;2023-01-15T06:12:01;7.10;99.90
47521;DHT22;32291;52.010;4.446;2023-01-15T06:13:02;7.10;99.90
47521;DHT22;32291;52.010;4.446;2023-01-15T06:14:04;7.20;99.90
47521;DHT22;32291;52.010;4.446;2023-01-15T06:15:06;7.20;99.90
47521;DHT22;32291;52.010;4.446;2023-01-15T06:16:08;7.20;99.90
47521;DHT22;32291;52.010;4.446;2023-01-15T06:17:12;7.30;99.90
47521;DHT22;32291;52.010;4.446;2023-01-15T06:18:14;7.30;99.90
47521;DHT22;32291;52.010;4.446;2023-01-15T06:19:16;7.30;99.90
47521;DHT22;32291;52.010;4.446;2023-01-15T06:20:17;7.20;99.90
47521;DHT22;32291;52.010;4.446;2023-01-15T06:21:19;7.20;99.90
47521;DHT22;32291;52.010;4.446;2023-01-15T06:22:21;7.20;99.90
47521;DHT22;32291;52.010;4.446;2023-01-15T06:23:22;7.20;99.90
47521;DHT22;32291;52.010;4.446;2023-01-15T06:24:23;7.10;99.90
47521;DHT22;32291;52.010;4.446;2023-01-15T06:25:24;7.20;99.90
47521;DHT22;32291;52.010;4.446;2023-01-15T06:26:26;7.10;99.90
47521;DHT22;32291;52.010;4.446;2023-01-15T06:27:27;7.20;99.90
47521;DHT22;32291;52.010;4.446;2023-01-15T06:28:29;7.20;99.90
47521;DHT22;32291;52.010;4.446;2023-01-15T06:29:31;7.40;99.90
47521;DHT22;32291;52.010;4.446;2023-01-15T06:30:32;7.20;99.90
47521;DHT22;32291;52.010;4.446;2023-01-15T06:31:34;7.20;99.90
47521;DHT22;32291;52.010;4.446;2023-01-15T06:32:36;7.30;99.90
47521;DHT22;32291;52.010;4.446;2023-01-15T06:33:38;7.20;99.90
47521;DHT22;32291;52.010;4.446;2023-01-15T06:34:39;7.20;99.90
47521;DHT22;32291;52.010;4.446;2023-01-15T06:35:43;7.20;99.90
47521;DHT22;32291;52.010;4.446;2023-01-15T06:36:45;7.10;99.90
47521;DHT22;32291;52.010;4.446;2023-01-15T06:37:48;7.10;99.90
47521;DHT22;32291;52.010;4.446;2023-01-15T06:38:49;7.10;99.90
47521;DHT22;32291;52.010;4.446;2023-01-15T06:39:51;7.00;99.90
47521;DHT22;32291;52.010;4.446;2023-01-15T06:40:52;7.00;99.90
47521;DHT22;32291;52.010;4.446;2023-01-15T06:41:53;7.00;99.90
47521;DHT22;32291;52.010;4.446;2023-01-15T06:43:30;7.00;99.90
47521;DHT22;32291;52.010;4.446;2023-01-15T06:44:50;7.10;99.90
47521;DHT22;32291;52.010;4.446;2023-01-15T06:46:09;7.00;99.90
47521;DHT22;32291;52.010;4.446;2023-01-15T06:47:30;7.00;99.90
47521;DHT22;32291;52.010;4.446;2023-01-15T06:48:32;7.00;99.90
47521;DHT22;32291;52.010;4.446;2023-01-15T06:49:35;7.00;99.90
47521;DHT22;32291;52.010;4.446;2023-01-15T06:50:36;7.00;99.90
47521;DHT22;32291;52.010;4.446;2023-01-15T06:51:37;7.00;99.90
47521;DHT22;32291;52.010;4.446;2023-01-15T06:52:39;6.90;99.90
47521;DHT22;32291;52.010;4.446;2023-01-15T06:53:40;6.90;99.90
47521;DHT22;32291;52.010;4.446;2023-01-15T06:54:42;7.00;99.90
47521;DHT22;32291;52.010;4.446;2023-01-15T06:55:43;7.20;99.90
47521;DHT22;32291;52.010;4.446;2023-01-15T06:56:44;6.90;99.90
47521;DHT22;32291;52.010;4.446;2023-01-15T06:57:46;6.90;99.90
47521;DHT22;32291;52.010;4.446;2023-01-15T06:58:47;6.90;99.90
47521;DHT22;32291;52.010;4.446;2023-01-15T06:59:49;6.90;99.90
47521;DHT22;32291;52.010;4.446;2023-01-15T07:00:51;6.80;99.90
47521;DHT22;32291;52.010;4.446;2023-01-15T07:01:56;6.80;99.90
47521;DHT22;32291;52.010;4.446;2023-01-15T07:03:02;6.80;99.90
47521;DHT22;32291;52.010;4.446;2023-01-15T07:04:04;6.80;99.90
47521;DHT22;32291;52.010;4.446;2023-01-15T07:05:06;6.80;99.90
47521;DHT22;32291;52.010;4.446;2023-01-15T07:06:09;6.80;99.90
47521;DHT22;32291;52.010;4.446;2023-01-15T07:07:11;6.80;99.90
47521;DHT22;32291;52.010;4.446;2023-01-15T07:08:12;6.80;99.90
47521;DHT22;32291;52.010;4.446;2023-01-15T07:09:14;6.80;99.90
47521;DHT22;32291;52.010;4.446;2023-01-15T07:10:16;6.80;99.90
47521;DHT22;32291;52.010;4.446;2023-01-15T07:11:17;6.80;99.90
47521;DHT22;32291;52.010;4.446;2023-01-15T07:12:20;6.80;99.90
47521;DHT22;32291;52.010;4.446;2023-01-15T07:13:21;6.80;99.90
47521;DHT22;32291;52.010;4.446;2023-01-15T07:14:24;6.80;99.90
47521;DHT22;32291;52.010;4.446;2023-01-15T07:15:28;6.80;99.90
47521;DHT22;32291;52.010;4.446;2023-01-15T07:16:29;6.90;99.90
47521;DHT22;32291;52.010;4.446;2023-01-15T07:17:30;6.90;99.90